Observation data for Denver City on 07/02/2020      Previous  Date       Current Mesonet Observations  Soil Data  Daily Summary Page  Observations in Plain Language
KDVS 020500Z 15020G27KT 24/14 A3002 RMK A01 T02410140  RH  055%=      5-min Rain = 0
KDVS 020505Z 15021G27KT 24/14 A3002 RMK A01 T02400138  RH  055%=      5-min Rain = 0
KDVS 020510Z 15020G26KT 24/14 A3002 RMK A01 T02400135  RH  054%=      5-min Rain = 0
KDVS 020515Z 16016G24KT 24/13 A3002 RMK A01 T02400134  RH  054%=      5-min Rain = 0
KDVS 020520Z 15016KT 24/13 A3002 RMK A01 T02390133  RH  054%=      5-min Rain = 0
KDVS 020525Z 15016G21KT 24/13 A3003 RMK A01 T02380132  RH  053%=      5-min Rain = 0
KDVS 020530Z 15013G20KT 24/13 A3003 RMK A01 T02380131  RH  053%=      5-min Rain = 0
KDVS 020535Z 16015G20KT 24/13 A3003 RMK A01 T02380130  RH  053%=      5-min Rain = 0
KDVS 020540Z 16016G21KT 24/13 A3003 RMK A01 T02380128  RH  052%=      5-min Rain = 0
KDVS 020545Z 16016KT 24/13 A3003 RMK A01 T02390128  RH  052%=      5-min Rain = 0
KDVS 020550Z 16014KT 24/13 A3003 RMK A01 T02380127  RH  052%=      5-min Rain = 0
KDVS 020555Z 17012KT 24/13 A3003 RMK A01 T02380127  RH  052%=      5-min Rain = 0
KDVS 020600Z 17012KT 24/13 A3002 RMK A01 T02380127  RH  052%=      5-min Rain = 0
KDVS 020605Z 17012KT 24/13 A3002 RMK A01 T02390126  RH  051%=      5-min Rain = 0
KDVS 020610Z 17012G17KT 24/13 A3002 RMK A01 T02400125  RH  051%=      5-min Rain = 0
KDVS 020615Z 16010KT 24/13 A3003 RMK A01 T02400125  RH  051%=      5-min Rain = 0
KDVS 020620Z 16009KT 24/13 A3003 RMK A01 T02390125  RH  051%=      5-min Rain = 0
KDVS 020625Z 17007KT 24/13 A3003 RMK A01 T02390125  RH  051%=      5-min Rain = 0
KDVS 020630Z 17007KT 24/13 A3003 RMK A01 T02380125  RH  051%=      5-min Rain = 0
KDVS 020635Z 17007KT 24/13 A3003 RMK A01 T02380126  RH  051%=      5-min Rain = 0
KDVS 020640Z 17007KT 24/13 A3003 RMK A01 T02390126  RH  051%=      5-min Rain = 0
KDVS 020645Z 17006KT 24/13 A3003 RMK A01 T02380125  RH  051%=      5-min Rain = 0
KDVS 020650Z 17006KT 24/13 A3003 RMK A01 T02380125  RH  051%=      5-min Rain = 0
KDVS 020655Z 17006KT 24/13 A3002 RMK A01 T02380126  RH  051%=      5-min Rain = 0
KDVS 020700Z 17007KT 24/13 A3002 RMK A01 T02380126  RH  051%=      5-min Rain = 0
KDVS 020705Z 17008KT 24/13 A3002 RMK A01 T02380126  RH  052%=      5-min Rain = 0
KDVS 020710Z 16007KT 24/13 A3002 RMK A01 T02370127  RH  052%=      5-min Rain = 0
KDVS 020715Z 16008KT 24/13 A3002 RMK A01 T02370127  RH  052%=      5-min Rain = 0
KDVS 020720Z 16007KT 24/13 A3002 RMK A01 T02370127  RH  052%=      5-min Rain = 0
KDVS 020725Z 17008KT 24/13 A3001 RMK A01 T02360128  RH  053%=      5-min Rain = 0
KDVS 020730Z 18008KT 24/13 A3001 RMK A01 T02360128  RH  053%=      5-min Rain = 0
KDVS 020735Z 18008KT 24/13 A3001 RMK A01 T02360128  RH  053%=      5-min Rain = 0
KDVS 020740Z 18007KT 24/13 A3001 RMK A01 T02360129  RH  053%=      5-min Rain = 0
KDVS 020745Z 19007KT 24/13 A3001 RMK A01 T02360129  RH  053%=      5-min Rain = 0
KDVS 020750Z 19006KT 24/13 A3001 RMK A01 T02350130  RH  054%=      5-min Rain = 0
KDVS 020755Z 18006KT 24/13 A3001 RMK A01 T02350130  RH  054%=      5-min Rain = 0
KDVS 020800Z 18006KT 23/13 A3001 RMK A01 T02340130  RH  054%=      5-min Rain = 0
KDVS 020805Z 18005KT 23/13 A3001 RMK A01 T02340130  RH  054%=      5-min Rain = 0
KDVS 020810Z 19005KT 23/13 A3001 RMK A01 T02340130  RH  054%=      5-min Rain = 0
KDVS 020815Z 19006KT 23/13 A30 RMK A01 T02340131  RH  054%=      5-min Rain = 0
KDVS 020820Z 19006KT 23/13 A30 RMK A01 T02340131  RH  054%=      5-min Rain = 0
KDVS 020825Z 20006KT 23/13 A30 RMK A01 T02340132  RH  055%=      5-min Rain = 0
KDVS 020830Z 20006KT 23/13 A30 RMK A01 T02340132  RH  055%=      5-min Rain = 0
KDVS 020835Z 20006KT 23/13 A30 RMK A01 T02330132  RH  055%=      5-min Rain = 0
KDVS 020840Z 20007KT 23/13 A30 RMK A01 T02330132  RH  055%=      5-min Rain = 0
KDVS 020845Z 20005KT 23/13 A30 RMK A01 T02330132  RH  055%=      5-min Rain = 0
KDVS 020850Z 20006KT 23/13 A30 RMK A01 T02330132  RH  055%=      5-min Rain = 0
KDVS 020855Z 21008KT 23/13 A30 RMK A01 T02330133  RH  056%=      5-min Rain = 0
KDVS 020900Z 21008KT 23/13 A30 RMK A01 T02340134  RH  056%=      5-min Rain = 0
KDVS 020905Z 21008KT 23/13 A30 RMK A01 T02340134  RH  056%=      5-min Rain = 0
KDVS 020910Z 21008KT 23/14 A30 RMK A01 T02340135  RH  056%=      5-min Rain = 0
KDVS 020915Z 22008KT 23/14 A30 RMK A01 T02330136  RH  057%=      5-min Rain = 0
KDVS 020920Z 22010KT 23/14 A30 RMK A01 T02330137  RH  057%=      5-min Rain = 0
KDVS 020925Z 22010KT 23/14 A30 RMK A01 T02330138  RH  057%=      5-min Rain = 0
KDVS 020930Z 22011KT 23/14 A2999 RMK A01 T02320138  RH  058%=      5-min Rain = 0
KDVS 020935Z 22011KT 23/14 A2999 RMK A01 T02320139  RH  058%=      5-min Rain = 0
KDVS 020940Z 22010KT 23/14 A2999 RMK A01 T02330140  RH  058%=      5-min Rain = 0
KDVS 020945Z 22010KT 23/14 A2999 RMK A01 T02330140  RH  058%=      5-min Rain = 0
KDVS 020950Z 21012KT 23/14 A30 RMK A01 T02340143  RH  059%=      5-min Rain = 0
KDVS 020955Z 19012KT 24/14 A30 RMK A01 T02350144  RH  059%=      5-min Rain = 0
KDVS 021000Z 18013KT 24/15 A3001 RMK A01 T02350146  RH  060%=      5-min Rain = 0
KDVS 021005Z 20013KT 24/15 A30 RMK A01 T02360150  RH  061%=      5-min Rain = 0
KDVS 021010Z 20013KT 24/15 A30 RMK A01 T02360152  RH  062%=      5-min Rain = 0
KDVS 021015Z 19013KT 24/15 A30 RMK A01 T02360153  RH  062%=      5-min Rain = 0
KDVS 021020Z 20012KT 24/15 A30 RMK A01 T02350153  RH  063%=      5-min Rain = 0
KDVS 021025Z 21011KT 23/15 A30 RMK A01 T02340153  RH  063%=      5-min Rain = 0
KDVS 021030Z 21013KT 23/15 A30 RMK A01 T02340153  RH  063%=      5-min Rain = 0
KDVS 021035Z 20012KT 23/15 A30 RMK A01 T02330153  RH  064%=      5-min Rain = 0
KDVS 021040Z 20014KT 23/15 A30 RMK A01 T02320153  RH  064%=      5-min Rain = 0
KDVS 021045Z 20011G16KT 23/15 A30 RMK A01 T02310153  RH  064%=      5-min Rain = 0
KDVS 021050Z 19011G16KT 23/15 A3001 RMK A01 T02300153  RH  065%=      5-min Rain = 0
KDVS 021055Z 20012KT 23/15 A3001 RMK A01 T02290152  RH  065%=      5-min Rain = 0
KDVS 021100Z 20012KT 23/15 A3001 RMK A01 T02280151  RH  065%=      5-min Rain = 0
KDVS 021105Z 20012G17KT 23/15 A3001 RMK A01 T02270149  RH  064%=      5-min Rain = 0
KDVS 021110Z 20013KT 23/15 A30 RMK A01 T02270149  RH  064%=      5-min Rain = 0
KDVS 021115Z 20013KT 23/15 A3001 RMK A01 T02260149  RH  064%=      5-min Rain = 0
KDVS 021120Z 20012KT 23/15 A3001 RMK A01 T02260147  RH  064%=      5-min Rain = 0
KDVS 021125Z 20011KT 23/15 A3001 RMK A01 T02250146  RH  063%=      5-min Rain = 0
KDVS 021130Z 20010KT 23/15 A3001 RMK A01 T02250147  RH  064%=      5-min Rain = 0
KDVS 021135Z 21009KT 22/15 A3001 RMK A01 T02240148  RH  065%=      5-min Rain = 0
KDVS 021140Z 21010KT 22/15 A3001 RMK A01 T02230149  RH  066%=      5-min Rain = 0
KDVS 021145Z 21009KT 22/15 A3002 RMK A01 T02220149  RH  066%=      5-min Rain = 0
KDVS 021150Z 21009KT 22/15 A3002 RMK A01 T02220149  RH  066%=      5-min Rain = 0
KDVS 021155Z 21009KT 22/15 A3002 RMK A01 T02210147  RH  066%=      5-min Rain = 0
KDVS 021200Z 21009KT 22/15 A3002 RMK A01 T02200145  RH  065%=      5-min Rain = 0
KDVS 021205Z 21008KT 22/15 A3002 RMK A01 T02200145  RH  065%=      5-min Rain = 0
KDVS 021210Z 21007KT 22/14 A3002 RMK A01 T02190144  RH  065%=      5-min Rain = 0
KDVS 021215Z 21008KT 22/14 A3001 RMK A01 T02180143  RH  065%=      5-min Rain = 0
KDVS 021220Z 21007KT 22/14 A3001 RMK A01 T02180143  RH  065%=      5-min Rain = 0
KDVS 021225Z 22007KT 22/14 A3001 RMK A01 T02170143  RH  065%=      5-min Rain = 0
KDVS 021230Z 22007KT 22/14 A3001 RMK A01 T02170143  RH  065%=      5-min Rain = 0
KDVS 021235Z 22006KT 22/14 A3001 RMK A01 T02170143  RH  065%=      5-min Rain = 0
KDVS 021240Z 21006KT 22/14 A3001 RMK A01 T02180143  RH  065%=      5-min Rain = 0
KDVS 021245Z 20006KT 22/14 A3001 RMK A01 T02190143  RH  064%=      5-min Rain = 0
KDVS 021250Z 20006KT 22/14 A3001 RMK A01 T02210143  RH  064%=      5-min Rain = 0
KDVS 021255Z 21006KT 22/14 A3002 RMK A01 T02230142  RH  063%=      5-min Rain = 0
KDVS 021300Z 22007KT 22/14 A3001 RMK A01 T02240143  RH  062%=      5-min Rain = 0
KDVS 021305Z 23008KT 23/14 A3001 RMK A01 T02280143  RH  061%=      5-min Rain = 0
KDVS 021310Z 22008KT 23/14 A3001 RMK A01 T02300143  RH  061%=      5-min Rain = 0
KDVS 021315Z 22007KT 23/14 A3002 RMK A01 T02310144  RH  060%=      5-min Rain = 0
KDVS 021320Z 21007KT 23/15 A3002 RMK A01 T02340145  RH  060%=      5-min Rain = 0
KDVS 021325Z 21007KT 24/15 A3002 RMK A01 T02360145  RH  059%=      5-min Rain = 0
KDVS 021330Z 19006KT 24/15 A3003 RMK A01 T02400145  RH  058%=      5-min Rain = 0
KDVS 021335Z 19008KT 24/15 A3003 RMK A01 T02440146  RH  057%=      5-min Rain = 0
KDVS 021340Z 20008KT 24/15 A3003 RMK A01 T02420146  RH  057%=      5-min Rain = 0
KDVS 021345Z 20009KT 24/15 A3004 RMK A01 T02420147  RH  058%=      5-min Rain = 0
KDVS 021350Z 19010KT 24/15 A3004 RMK A01 T02440148  RH  057%=      5-min Rain = 0
KDVS 021355Z 20011KT 25/15 A3004 RMK A01 T02450148  RH  057%=      5-min Rain = 0
KDVS 021400Z 20010KT 25/15 A3004 RMK A01 T02490149  RH  056%=      5-min Rain = 0
KDVS 021405Z 19011KT 25/15 A3004 RMK A01 T02510148  RH  055%=      5-min Rain = 0
KDVS 021410Z 19010KT 25/15 A3004 RMK A01 T02530149  RH  055%=      5-min Rain = 0
KDVS 021415Z 20008KT 25/15 A3005 RMK A01 T02530148  RH  055%=      5-min Rain = 0
KDVS 021420Z 20009KT 26/15 A3005 RMK A01 T02550149  RH  054%=      5-min Rain = 0
KDVS 021425Z 18009KT 26/15 A3005 RMK A01 T02570150  RH  054%=      5-min Rain = 0
KDVS 021430Z 19010KT 26/15 A3005 RMK A01 T02610150  RH  053%=      5-min Rain = 0
KDVS 021435Z 18010KT 27/15 A3005 RMK A01 T02650150  RH  051%=      5-min Rain = 0
KDVS 021440Z 18009KT 27/15 A3005 RMK A01 T02700151  RH  050%=      5-min Rain = 0
KDVS 021445Z 18009KT 27/15 A3005 RMK A01 T02730149  RH  049%=      5-min Rain = 0
KDVS 021450Z 18009KT 27/15 A3005 RMK A01 T02740148  RH  048%=      5-min Rain = 0
KDVS 021455Z 19009KT 27/15 A3005 RMK A01 T02710149  RH  049%=      5-min Rain = 0
KDVS 021500Z 19009KT 27/15 A3005 RMK A01 T02740146  RH  048%=      5-min Rain = 0
KDVS 021505Z 20009KT 28/14 A3005 RMK A01 T02770144  RH  046%=      5-min Rain = 0
KDVS 021510Z 19008KT 28/15 A3005 RMK A01 T02760145  RH  047%=      5-min Rain = 0
KDVS 021515Z 19006KT 28/14 A3005 RMK A01 T02800141  RH  045%=      5-min Rain = 0
KDVS 021520Z 19007KT 29/14 A3005 RMK A01 T02860142  RH  043%=      5-min Rain = 0
KDVS 021525Z 19007KT 29/14 A3005 RMK A01 T02860137  RH  042%=      5-min Rain = 0
KDVS 021530Z 19005KT 29/14 A3005 RMK A01 T02900137  RH  041%=      5-min Rain = 0
KDVS 021535Z 21006KT 29/14 A3005 RMK A01 T02890135  RH  040%=      5-min Rain = 0
KDVS 021540Z 18003KT 29/13 A3005 RMK A01 T02870134  RH  041%=      5-min Rain = 0
KDVS 021545Z 22005KT 29/13 A3005 RMK A01 T02890132  RH  039%=      5-min Rain = 0
KDVS 021550Z 22003KT 29/13 A3005 RMK A01 T02880128  RH  039%=      5-min Rain = 0
KDVS 021555Z 18004KT 29/13 A3005 RMK A01 T02930126  RH  037%=      5-min Rain = 0
KDVS 021600Z 21007KT 30/13 A3005 RMK A01 T02960126  RH  037%=      5-min Rain = 0
KDVS 021605Z 21007KT 30/13 A3005 RMK A01 T02970126  RH  036%=      5-min Rain = 0
KDVS 021610Z 18005KT 30/12 A3005 RMK A01 T02960124  RH  036%=      5-min Rain = 0
KDVS 021615Z 16004G9KT 30/12 A3005 RMK A01 T03010122  RH  035%=      5-min Rain = 0
KDVS 021620Z 17005KT 30/12 A3005 RMK A01 T03030120  RH  034%=      5-min Rain = 0
KDVS 021625Z 19005KT 31/12 A3005 RMK A01 T03050119  RH  033%=      5-min Rain = 0
KDVS 021630Z 18007KT 31/12 A3006 RMK A01 T03050117  RH  033%=      5-min Rain = 0
KDVS 021635Z 17004KT 31/11 A3006 RMK A01 T03050113  RH  032%=      5-min Rain = 0
KDVS 021640Z 10002KT 31/11 A3005 RMK A01 T03070111  RH  031%=      5-min Rain = 0
KDVS 021645Z 22005KT 31/11 A3005 RMK A01 T03110113  RH  031%=      5-min Rain = 0
KDVS 021650Z 22005KT 31/11 A3005 RMK A01 T03100113  RH  031%=      5-min Rain = 0
KDVS 021655Z 24004KT 31/11 A3005 RMK A01 T03080110  RH  031%=      5-min Rain = 0
KDVS 021700Z 24006G11KT 31/11 A3005 RMK A01 T03120106  RH  029%=      5-min Rain = 0
KDVS 021705Z 25004KT 31/10 A3005 RMK A01 T03140103  RH  028%=      5-min Rain = 0
KDVS 021710Z 27005KT 32/10 A3005 RMK A01 T03170101  RH  027%=      5-min Rain = 0
KDVS 021715Z 24004KT 32/11 A3005 RMK A01 T03180105  RH  028%=      5-min Rain = 0
KDVS 021720Z 20003G8KT 32/10 A3005 RMK A01 T03230104  RH  027%=      5-min Rain = 0
KDVS 021725Z 22005KT 33/10 A3005 RMK A01 T03250104  RH  027%=      5-min Rain = 0
KDVS 021730Z 22005KT 32/10 A3005 RMK A01 T03220104  RH  027%=      5-min Rain = 0
KDVS 021735Z 26003G10KT 32/10 A3005 RMK A01 T03230102  RH  027%=      5-min Rain = 0
KDVS 021740Z 27002KT 33/10 A3005 RMK A01 T03250103  RH  027%=      5-min Rain = 0
KDVS 021745Z 29003KT 33/10 A3005 RMK A01 T03280100  RH  025%=      5-min Rain = 0
KDVS 021750Z 31003KT 33/10 A3005 RMK A01 T03320098  RH  024%=      5-min Rain = 0
KDVS 021755Z 22004KT 33/10 A3005 RMK A01 T03320097  RH  024%=      5-min Rain = 0
KDVS 021800Z 18005KT 33/10 A3005 RMK A01 T03320100  RH  025%=      5-min Rain = 0
KDVS 021805Z 23005KT 33/10 A3005 RMK A01 T03310100  RH  025%=      5-min Rain = 0
KDVS 021810Z 21006G11KT 33/10 A3005 RMK A01 T03320097  RH  024%=      5-min Rain = 0
KDVS 021815Z 23006KT 33/09 A3004 RMK A01 T03310093  RH  024%=      5-min Rain = 0
KDVS 021820Z 20005KT 34/09 A3004 RMK A01 T03360088  RH  022%=      5-min Rain = 0
KDVS 021825Z 20003KT 34/09 A3004 RMK A01 T03350087  RH  022%=      5-min Rain = 0
KDVS 021830Z 35003G8KT 33/10 A3004 RMK A01 T03330096  RH  024%=      5-min Rain = 0
KDVS 021835Z 22005G10KT 33/10 A3004 RMK A01 T03310101  RH  025%=      5-min Rain = 0
KDVS 021840Z 14007G12KT 34/10 A3003 RMK A01 T03380101  RH  024%=      5-min Rain = 0
KDVS 021845Z 11008G13KT 34/10 A3003 RMK A01 T03400098  RH  024%=      5-min Rain = 0
KDVS 021850Z 11008KT 34/10 A3003 RMK A01 T03410095  RH  023%=      5-min Rain = 0
KDVS 021855Z 14009G14KT 35/09 A3003 RMK A01 T03470093  RH  022%=      5-min Rain = 0
KDVS 021900Z 15007G15KT 35/09 A3003 RMK A01 T03450091  RH  022%=      5-min Rain = 0
KDVS 021905Z 17009G16KT 35/09 A3003 RMK A01 T03470087  RH  021%=      5-min Rain = 0
KDVS 021910Z 16004KT 35/09 A3003 RMK A01 T03450086  RH  021%=      5-min Rain = 0
KDVS 021915Z 14004G9KT 34/08 A3003 RMK A01 T03430081  RH  020%=      5-min Rain = 0
KDVS 021920Z 15005G13KT 35/08 A3002 RMK A01 T03480080  RH  020%=      5-min Rain = 0
KDVS 021925Z 20005G11KT 35/08 A3002 RMK A01 T03460081  RH  020%=      5-min Rain = 0
KDVS 021930Z 18007G12KT 35/08 A3002 RMK A01 T03520076  RH  019%=      5-min Rain = 0
KDVS 021935Z 13006G11KT 35/07 A3002 RMK A01 T03510072  RH  018%=      5-min Rain = 0
KDVS 021940Z 20003KT 35/07 A3001 RMK A01 T03480067  RH  018%=      5-min Rain = 0
KDVS 021945Z 11005G13KT 35/07 A3001 RMK A01 T03510073  RH  019%=      5-min Rain = 0
KDVS 021950Z 09007KT 35/08 A3001 RMK A01 T03540075  RH  018%=      5-min Rain = 0
KDVS 021955Z 34003KT 35/08 A3001 RMK A01 T03490078  RH  019%=      5-min Rain = 0
KDVS 022000Z 14008KT 35/07 A3001 RMK A01 T03480074  RH  019%=      5-min Rain = 0
KDVS 022005Z 12006KT 34/07 A3001 RMK A01 T03440072  RH  019%=      5-min Rain = 0
KDVS 022010Z 13007KT 34/07 A3001 RMK A01 T03390069  RH  019%=      5-min Rain = 0
KDVS 022015Z 17007G12KT 34/07 A30 RMK A01 T03420073  RH  020%=      5-min Rain = 0
KDVS 022020Z 12008G13KT 34/07 A30 RMK A01 T03430069  RH  019%=      5-min Rain = 0
KDVS 022025Z 11006G12KT 35/07 A30 RMK A01 T03460068  RH  018%=      5-min Rain = 0
KDVS 022030Z 15008G15KT 36/07 A30 RMK A01 T03570068  RH  017%=      5-min Rain = 0
KDVS 022035Z 13006G12KT 35/07 A30 RMK A01 T03520066  RH  018%=      5-min Rain = 0
KDVS 022040Z 18005G13KT 35/07 A30 RMK A01 T03460067  RH  018%=      5-min Rain = 0
KDVS 022045Z 19008G15KT 35/07 A30 RMK A01 T03460066  RH  018%=      5-min Rain = 0
KDVS 022050Z 21008KT 35/06 A30 RMK A01 T03450063  RH  018%=      5-min Rain = 0
KDVS 022055Z 20009KT 35/06 A30 RMK A01 T03460064  RH  018%=      5-min Rain = 0
KDVS 022100Z 20007G13KT 35/06 A30 RMK A01 T03470062  RH  017%=      5-min Rain = 0
KDVS 022105Z 19006G13KT 36/06 A30 RMK A01 T03570062  RH  017%=      5-min Rain = 0
KDVS 022110Z 19006G12KT 36/06 A2999 RMK A01 T03580063  RH  017%=      5-min Rain = 0
KDVS 022115Z 21008G13KT 36/06 A2999 RMK A01 T03600062  RH  016%=      5-min Rain = 0
KDVS 022120Z 22008KT 35/06 A2999 RMK A01 T03520062  RH  017%=      5-min Rain = 0
KDVS 022125Z 21009KT 35/06 A2999 RMK A01 T03500063  RH  017%=      5-min Rain = 0
KDVS 022130Z 22006G11KT 35/06 A2999 RMK A01 T03540062  RH  017%=      5-min Rain = 0
KDVS 022135Z 22008KT 35/06 A2999 RMK A01 T03530060  RH  017%=      5-min Rain = 0
KDVS 022140Z 20008KT 35/06 A2999 RMK A01 T03510062  RH  017%=      5-min Rain = 0
KDVS 022145Z 20008G13KT 35/06 A2999 RMK A01 T03490063  RH  018%=      5-min Rain = 0
KDVS 022150Z 21005KT 35/06 A2999 RMK A01 T03480063  RH  018%=      5-min Rain = 0
KDVS 022155Z 25004G9KT 36/06 A2999 RMK A01 T03550058  RH  016%=      5-min Rain = 0
KDVS 022200Z 33001KT 36/05 A2998 RMK A01 T03550053  RH  016%=      5-min Rain = 0
KDVS 022205Z 06001KT 35/05 A2998 RMK A01 T03530054  RH  016%=      5-min Rain = 0
KDVS 022210Z 22007KT 35/06 A2998 RMK A01 T03520057  RH  017%=      5-min Rain = 0
KDVS 022215Z 19009KT 35/06 A2998 RMK A01 T03500061  RH  017%=      5-min Rain = 0
KDVS 022220Z 21008KT 35/06 A2998 RMK A01 T03490061  RH  017%=      5-min Rain = 0
KDVS 022225Z 18007KT 35/06 A2998 RMK A01 T03490062  RH  017%=      5-min Rain = 0
KDVS 022230Z 18004G9KT 35/06 A2998 RMK A01 T03500061  RH  017%=      5-min Rain = 0
KDVS 022235Z 19005KT 35/06 A2998 RMK A01 T03520059  RH  017%=      5-min Rain = 0
KDVS 022240Z 21005KT 35/06 A2998 RMK A01 T03510059  RH  017%=      5-min Rain = 0
KDVS 022245Z 19006KT 35/06 A2998 RMK A01 T03520059  RH  017%=      5-min Rain = 0
KDVS 022250Z 23005G10KT 35/06 A2998 RMK A01 T03530060  RH  017%=      5-min Rain = 0
KDVS 022255Z 25004G9KT 35/06 A2998 RMK A01 T03520058  RH  017%=      5-min Rain = 0
KDVS 022300Z 25006KT 36/06 A2998 RMK A01 T03550055  RH  016%=      5-min Rain = 0
KDVS 022305Z 23006KT 35/06 A2997 RMK A01 T03510057  RH  017%=      5-min Rain = 0
KDVS 022310Z 27004KT 35/05 A2997 RMK A01 T03520053  RH  016%=      5-min Rain = 0
KDVS 022315Z 13005G11KT 35/06 A2997 RMK A01 T03540059  RH  017%=      5-min Rain = 0
KDVS 022320Z 16005KT 35/07 A2997 RMK A01 T03500066  RH  018%=      5-min Rain = 0
KDVS 022325Z 09007KT 35/07 A2997 RMK A01 T03470066  RH  018%=      5-min Rain = 0
KDVS 022330Z 10009KT 35/07 A2997 RMK A01 T03470066  RH  018%=      5-min Rain = 0
KDVS 022335Z 13007KT 35/07 A2996 RMK A01 T03450066  RH  018%=      5-min Rain = 0
KDVS 022340Z 14009KT 35/07 A2996 RMK A01 T03450066  RH  018%=      5-min Rain = 0
KDVS 022345Z 15008KT 34/07 A2996 RMK A01 T03440068  RH  019%=      5-min Rain = 0
KDVS 022350Z 13007G12KT 34/07 A2996 RMK A01 T03430069  RH  019%=      5-min Rain = 0
KDVS 022355Z 12008KT 34/07 A2996 RMK A01 T03430069  RH  019%=      5-min Rain = 0
KDVS 030000Z 12007KT 35/07 A2996 RMK A01 T03450069  RH  019%=      5-min Rain = 0
KDVS 030005Z 10007KT 35/07 A2996 RMK A01 T03470069  RH  018%=      5-min Rain = 0
KDVS 030010Z 11008KT 34/07 A2996 RMK A01 T03430069  RH  019%=      5-min Rain = 0
KDVS 030015Z 11008KT 34/07 A2996 RMK A01 T03410072  RH  019%=      5-min Rain = 0
KDVS 030020Z 12010G15KT 34/08 A2996 RMK A01 T03400083  RH  021%=      5-min Rain = 0
KDVS 030025Z 13014KT 34/09 A2996 RMK A01 T03400088  RH  022%=      5-min Rain = 0
KDVS 030030Z 13014KT 34/09 A2996 RMK A01 T03440093  RH  022%=      5-min Rain = 0
KDVS 030035Z 13011G17KT 34/10 A2996 RMK A01 T03440097  RH  023%=      5-min Rain = 0
KDVS 030040Z 14015G20KT 34/10 A2996 RMK A01 T03440099  RH  023%=      5-min Rain = 0
KDVS 030045Z 14015KT 34/10 A2996 RMK A01 T03410099  RH  024%=      5-min Rain = 0
KDVS 030050Z 14014G19KT 34/10 A2996 RMK A01 T03390100  RH  024%=      5-min Rain = 0
KDVS 030055Z 13015KT 33/10 A2996 RMK A01 T03330099  RH  025%=      5-min Rain = 0
KDVS 030100Z 13014G19KT 33/10 A2997 RMK A01 T03280100  RH  026%=      5-min Rain = 0
KDVS 030105Z 13015KT 33/10 A2997 RMK A01 T03250100  RH  026%=      5-min Rain = 0
KDVS 030110Z 13014G19KT 32/10 A2997 RMK A01 T03240100  RH  026%=      5-min Rain = 0
KDVS 030115Z 13014KT 32/10 A2997 RMK A01 T03230100  RH  026%=      5-min Rain = 0
KDVS 030120Z 14016G21KT 32/10 A2997 RMK A01 T03230102  RH  027%=      5-min Rain = 0
KDVS 030125Z 13014G19KT 32/10 A2997 RMK A01 T03220100  RH  026%=      5-min Rain = 0
KDVS 030130Z 13014G19KT 32/10 A2997 RMK A01 T03210101  RH  027%=      5-min Rain = 0
KDVS 030135Z 13014G20KT 32/10 A2997 RMK A01 T03200101  RH  027%=      5-min Rain = 0
KDVS 030140Z 13014KT 32/10 A2997 RMK A01 T03180101  RH  027%=      5-min Rain = 0
KDVS 030145Z 13015G20KT 32/10 A2997 RMK A01 T03160102  RH  028%=      5-min Rain = 0
KDVS 030150Z 13015KT 32/10 A2998 RMK A01 T03150102  RH  028%=      5-min Rain = 0
KDVS 030155Z 13014G19KT 31/10 A2998 RMK A01 T03130104  RH  028%=      5-min Rain = 0
KDVS 030200Z 14013KT 31/10 A2998 RMK A01 T03120104  RH  029%=      5-min Rain = 0
KDVS 030205Z 14012KT 31/11 A2998 RMK A01 T03110106  RH  029%=      5-min Rain = 0
KDVS 030210Z 14012KT 31/11 A2998 RMK A01 T03100109  RH  030%=      5-min Rain = 0
KDVS 030215Z 15013G21KT 31/11 A2999 RMK A01 T03070111  RH  031%=      5-min Rain = 0
KDVS 030220Z 15018G24KT 30/12 A2999 RMK A01 T03030118  RH  033%=      5-min Rain = 0
KDVS 030225Z 15019G24KT 30/12 A2999 RMK A01 T02980120  RH  035%=      5-min Rain = 0
KDVS 030230Z 15016KT 29/12 A2999 RMK A01 T02940124  RH  037%=      5-min Rain = 0
KDVS 030235Z 15017G23KT 29/13 A2999 RMK A01 T02900129  RH  039%=      5-min Rain = 0
KDVS 030240Z 15016G21KT 29/13 A30 RMK A01 T02870133  RH  040%=      5-min Rain = 0
KDVS 030245Z 15014G19KT 29/13 A30 RMK A01 T02850134  RH  041%=      5-min Rain = 0
KDVS 030250Z 15014G19KT 28/13 A30 RMK A01 T02830134  RH  042%=      5-min Rain = 0
KDVS 030255Z 15016KT 28/14 A3001 RMK A01 T02830135  RH  042%=      5-min Rain = 0
KDVS 030300Z 15014G21KT 28/14 A3001 RMK A01 T02810136  RH  043%=      5-min Rain = 0
KDVS 030305Z 16013G18KT 28/14 A3001 RMK A01 T02790137  RH  043%=      5-min Rain = 0
KDVS 030310Z 16012G18KT 28/14 A3001 RMK A01 T02770138  RH  044%=      5-min Rain = 0
KDVS 030315Z 16012KT 28/14 A3001 RMK A01 T02760139  RH  045%=      5-min Rain = 0
KDVS 030320Z 16012KT 28/14 A3002 RMK A01 T02760139  RH  045%=      5-min Rain = 0
KDVS 030325Z 15011KT 27/14 A3002 RMK A01 T02740139  RH  045%=      5-min Rain = 0
KDVS 030330Z 15010KT 27/14 A3003 RMK A01 T02720140  RH  046%=      5-min Rain = 0
KDVS 030335Z 15011KT 27/14 A3003 RMK A01 T02710141  RH  047%=      5-min Rain = 0
KDVS 030340Z 15010KT 27/14 A3003 RMK A01 T02700141  RH  047%=      5-min Rain = 0
KDVS 030345Z 15011KT 27/14 A3003 RMK A01 T02690141  RH  047%=      5-min Rain = 0
KDVS 030350Z 15011KT 27/14 A3004 RMK A01 T02680141  RH  048%=      5-min Rain = 0
KDVS 030355Z 16010KT 27/14 A3004 RMK A01 T02670141  RH  048%=      5-min Rain = 0
KDVS 030400Z 15010KT 27/14 A3004 RMK A01 T02660141  RH  048%=      5-min Rain = 0
KDVS 030405Z 14009KT 27/14 A3004 RMK A01 T02650142  RH  049%=      5-min Rain = 0
KDVS 030410Z 14008KT 26/14 A3005 RMK A01 T02640142  RH  049%=      5-min Rain = 0
KDVS 030415Z 15008KT 26/14 A3005 RMK A01 T02620143  RH  050%=      5-min Rain = 0
KDVS 030420Z 15008KT 26/14 A3005 RMK A01 T02610143  RH  050%=      5-min Rain = 0
KDVS 030425Z 14007KT 26/14 A3005 RMK A01 T02600143  RH  051%=      5-min Rain = 0
KDVS 030430Z 14007KT 26/14 A3005 RMK A01 T02580143  RH  051%=      5-min Rain = 0
KDVS 030435Z 15007KT 26/14 A3005 RMK A01 T02580143  RH  051%=      5-min Rain = 0
KDVS 030440Z 15007KT 26/14 A3005 RMK A01 T02570143  RH  051%=      5-min Rain = 0
KDVS 030445Z 14008KT 26/14 A3006 RMK A01 T02560142  RH  052%=      5-min Rain = 0
KDVS 030450Z 14009KT 26/14 A3006 RMK A01 T02560142  RH  052%=      5-min Rain = 0
KDVS 030455Z 14008KT 26/14 A3006 RMK A01 T02570141  RH  051%=      5-min Rain = 0

Page generated in 0.009 seconds.